Time;durP1;ratioP1;P1;durP2;ratioP2;P2;SDS_P1;SDS_P2;PMS_P1;PMS_P2;Temp;Humidity;BMP_temperature;BMP_pressure;BME280_temperature;BME280_humidity;BME280_pressure;Samples;Min_cycle;Max_cycle;Signal;HPM_P1;HPM_P2
2022/07/02 00:00:03;;;;;;;8.38;3.10;;;14.90;96.30;;;;;;5066843;28;20041;-61
2022/07/02 00:02:34;;;;;;;4.32;2.85;;;14.80;96.40;;;;;;5065261;28;20024;-61
2022/07/02 00:05:03;;;;;;;7.57;3.63;;;14.80;96.50;;;;;;5064909;28;20111;-61
2022/07/02 00:07:30;;;;;;;5.82;3.30;;;14.80;96.80;;;;;;5066552;28;20044;-61
2022/07/02 00:09:57;;;;;;;5.93;3.95;;;14.70;97.10;;;;;;5067344;28;20387;-61
2022/07/02 00:12:24;;;;;;;5.13;3.63;;;14.60;97.30;;;;;;5068054;28;20052;-61
2022/07/02 00:14:57;;;;;;;6.10;3.97;;;14.60;97.70;;;;;;5069246;28;20488;-61
2022/07/02 00:17:23;;;;;;;4.22;3.70;;;14.60;98.00;;;;;;5068830;28;20117;-61
2022/07/02 00:19:50;;;;;;;5.60;4.30;;;14.50;98.30;;;;;;5069331;28;20023;-61
2022/07/02 00:22:16;;;;;;;4.68;3.42;;;14.50;98.50;;;;;;5071666;28;20036;-61
2022/07/02 00:24:42;;;;;;;7.05;4.65;;;14.50;98.80;;;;;;5067122;28;20037;-61
2022/07/02 00:27:14;;;;;;;7.07;4.30;;;14.40;99.00;;;;;;5070521;28;20051;-61
2022/07/02 00:29:43;;;;;;;6.90;3.85;;;14.40;99.30;;;;;;5070418;28;20020;-61
2022/07/02 00:32:09;;;;;;;4.68;3.70;;;14.30;99.40;;;;;;5070379;28;20507;-61
2022/07/02 00:34:37;;;;;;;6.13;4.30;;;14.30;99.50;;;;;;5080479;28;20055;-61
2022/07/02 00:37:03;;;;;;;4.95;3.63;;;14.20;99.60;;;;;;5076782;28;20115;-61
2022/07/02 00:39:29;;;;;;;6.30;3.55;;;14.20;99.60;;;;;;5071581;28;20535;-61
2022/07/02 00:41:54;;;;;;;6.30;4.22;;;14.20;99.70;;;;;;5068082;28;20530;-61
2022/07/02 00:44:22;;;;;;;5.18;3.55;;;14.30;99.70;;;;;;5062521;28;20025;-61
2022/07/02 00:46:49;;;;;;;5.25;3.60;;;14.20;99.70;;;;;;5069538;28;20036;-62
2022/07/02 00:49:16;;;;;;;5.25;3.85;;;14.20;99.70;;;;;;5070343;28;20373;-61
2022/07/02 00:51:41;;;;;;;4.57;3.72;;;14.20;99.70;;;;;;5066274;28;20037;-61
2022/07/02 00:54:07;;;;;;;5.82;4.00;;;14.20;99.80;;;;;;5071279;28;20029;-61
2022/07/02 00:56:33;;;;;;;4.90;3.75;;;14.20;99.80;;;;;;5069153;28;20045;-62
2022/07/02 00:59:00;;;;;;;7.22;4.00;;;14.20;99.90;;;;;;5069092;28;20096;-62
2022/07/02 01:01:26;;;;;;;5.47;4.20;;;14.10;99.90;;;;;;5065006;28;20048;-61
2022/07/02 01:03:54;;;;;;;6.70;4.75;;;14.20;99.90;;;;;;5070809;28;20493;-61
2022/07/02 01:06:23;;;;;;;5.25;4.47;;;14.10;99.90;;;;;;5068401;28;20501;-61
2022/07/02 01:11:35;;;;;;;6.72;3.88;;;14.10;99.90;;;;;;5068152;28;20039;-61
2022/07/02 01:14:02;;;;;;;5.57;3.60;;;14.00;99.90;;;;;;5067235;28;20028;-61
2022/07/02 01:16:28;;;;;;;5.10;3.83;;;14.00;99.90;;;;;;5068971;28;20252;-61
2022/07/02 01:18:54;;;;;;;7.18;3.95;;;14.00;99.90;;;;;;5065835;28;20021;-62
2022/07/02 01:21:19;;;;;;;6.85;3.72;;;14.00;99.90;;;;;;5068830;28;20025;-61
2022/07/02 01:23:45;;;;;;;3.97;3.50;;;13.90;99.90;;;;;;5069819;28;20035;-61
2022/07/02 01:26:10;;;;;;;5.90;3.72;;;13.90;99.90;;;;;;5067131;28;20483;-61
2022/07/02 01:28:36;;;;;;;6.00;3.47;;;13.90;99.90;;;;;;5069635;28;20028;-62
2022/07/02 01:31:02;;;;;;;4.38;3.08;;;13.90;99.90;;;;;;5069875;28;20027;-61
2022/07/02 01:33:27;;;;;;;5.13;3.30;;;13.90;99.90;;;;;;5069706;28;20052;-61
2022/07/02 01:35:53;;;;;;;4.75;3.40;;;13.90;99.90;;;;;;5067338;28;20115;-61
2022/07/02 01:38:18;;;;;;;5.57;3.85;;;13.90;99.90;;;;;;5082843;28;20020;-61
2022/07/02 01:40:44;;;;;;;5.97;3.70;;;13.90;99.90;;;;;;5068349;28;20024;-61
2022/07/02 01:43:09;;;;;;;6.97;4.03;;;13.90;99.90;;;;;;5068971;28;20031;-61
2022/07/02 01:45:35;;;;;;;5.93;4.13;;;13.90;99.90;;;;;;5069039;28;21187;-61
2022/07/02 01:48:00;;;;;;;4.80;3.67;;;13.90;99.90;;;;;;5068348;28;20028;-61
2022/07/02 01:50:26;;;;;;;5.97;4.70;;;13.80;99.90;;;;;;5069716;28;20392;-61
2022/07/02 01:52:56;;;;;;;4.07;3.40;;;13.80;99.90;;;;;;5066907;28;20032;-61
2022/07/02 01:55:22;;;;;;;7.68;4.32;;;13.80;99.90;;;;;;5064266;28;20031;-61
2022/07/02 01:57:48;;;;;;;6.65;3.90;;;13.70;99.90;;;;;;5068950;28;20024;-61
2022/07/02 02:00:14;;;;;;;6.40;4.50;;;13.70;99.90;;;;;;5066652;28;20029;-61
2022/07/02 02:02:40;;;;;;;6.43;4.50;;;13.70;99.90;;;;;;5067270;28;20032;-61
2022/07/02 02:05:06;;;;;;;5.97;4.32;;;13.70;99.90;;;;;;5066239;28;20038;-61
2022/07/02 02:07:32;;;;;;;5.78;3.90;;;13.60;99.90;;;;;;5069066;28;20039;-61
2022/07/02 02:09:58;;;;;;;4.95;3.75;;;13.60;99.90;;;;;;5066265;28;20066;-61
2022/07/02 02:12:23;;;;;;;5.55;3.80;;;13.60;99.90;;;;;;5068370;28;20029;-61
2022/07/02 02:14:49;;;;;;;5.35;3.92;;;13.60;99.90;;;;;;5068830;28;20036;-61
2022/07/02 02:17:14;;;;;;;6.28;3.60;;;13.60;99.90;;;;;;5068690;28;20023;-61
2022/07/02 02:19:40;;;;;;;3.15;2.55;;;13.60;99.90;;;;;;5067135;28;20107;-61
2022/07/02 02:22:05;;;;;;;4.10;2.78;;;13.60;99.90;;;;;;5067906;28;20027;-61
2022/07/02 02:24:31;;;;;;;5.03;3.70;;;13.60;99.90;;;;;;5065203;28;20028;-61
2022/07/02 02:26:58;;;;;;;6.75;3.85;;;13.60;99.90;;;;;;5066060;28;20058;-61
2022/07/02 02:29:23;;;;;;;5.55;3.08;;;13.60;99.90;;;;;;5072796;28;20031;-61
2022/07/02 02:31:49;;;;;;;3.75;2.25;;;13.60;99.90;;;;;;5077219;28;20029;-61
2022/07/02 02:34:14;;;;;;;3.75;2.15;;;13.60;99.90;;;;;;5066225;28;20032;-61
2022/07/02 02:36:40;;;;;;;2.95;2.60;;;13.50;99.90;;;;;;5067902;28;20400;-61
2022/07/02 02:39:06;;;;;;;5.50;3.30;;;13.50;99.90;;;;;;5067706;28;20025;-61
2022/07/02 02:41:31;;;;;;;4.32;3.28;;;13.50;99.90;;;;;;5067270;28;20070;-61
2022/07/02 02:43:57;;;;;;;6.50;3.70;;;13.50;99.90;;;;;;5067976;28;20438;-61
2022/07/02 02:46:22;;;;;;;6.03;3.97;;;13.50;99.90;;;;;;5065287;28;20532;-61
2022/07/02 02:48:48;;;;;;;6.85;4.53;;;13.40;99.90;;;;;;5066802;28;20541;-61
2022/07/02 02:51:15;;;;;;;6.85;3.95;;;13.30;99.90;;;;;;5068355;28;20544;-61
2022/07/02 02:53:49;;;;;;;7.28;4.15;;;13.30;99.90;;;;;;5067350;28;20135;-61
2022/07/02 02:56:15;;;;;;;7.60;3.92;;;13.30;99.90;;;;;;5066324;28;20027;-61
2022/07/02 02:58:40;;;;;;;8.13;3.80;;;13.20;99.90;;;;;;5068558;28;20040;-61
2022/07/02 03:01:06;;;;;;;6.88;4.07;;;13.00;99.90;;;;;;5067438;28;20373;-61
2022/07/02 03:03:31;;;;;;;5.60;3.92;;;13.00;99.90;;;;;;5067159;28;20024;-61
2022/07/02 03:05:57;;;;;;;4.95;3.60;;;12.90;99.90;;;;;;5065807;28;20012;-61
2022/07/02 03:08:22;;;;;;;7.63;3.97;;;13.00;99.90;;;;;;5066286;28;20032;-61
2022/07/02 03:10:48;;;;;;;5.45;3.90;;;13.00;99.90;;;;;;5068439;28;20027;-64
2022/07/02 03:13:15;;;;;;;7.00;4.13;;;13.00;99.90;;;;;;5067804;28;20379;-61
2022/07/02 03:15:41;;;;;;;7.95;4.20;;;13.10;99.90;;;;;;5065076;28;20048;-62
2022/07/02 03:18:06;;;;;;;6.93;3.30;;;13.10;99.90;;;;;;5066873;28;20027;-61
2022/07/02 03:20:32;;;;;;;6.22;3.55;;;13.10;99.90;;;;;;5068206;28;20025;-60
2022/07/02 03:22:59;;;;;;;11.25;4.50;;;13.10;99.90;;;;;;5067158;28;20025;-61
2022/07/02 03:25:24;;;;;;;5.07;4.22;;;13.00;99.90;;;;;;5065148;28;20036;-61
2022/07/02 03:27:50;;;;;;;6.93;3.80;;;13.10;99.90;;;;;;5066608;28;20025;-61
2022/07/02 03:30:16;;;;;;;4.40;3.78;;;13.10;99.90;;;;;;5066366;28;20029;-61
2022/07/02 03:32:42;;;;;;;6.53;3.40;;;13.10;99.90;;;;;;5077403;28;20038;-61
2022/07/02 03:35:07;;;;;;;9.20;4.43;;;13.10;99.90;;;;;;5064549;28;20028;-61
2022/07/02 03:37:33;;;;;;;5.18;3.30;;;13.20;99.90;;;;;;5065808;28;20118;-61
2022/07/02 03:39:58;;;;;;;6.45;3.97;;;13.20;99.90;;;;;;5067234;28;20021;-61
2022/07/02 03:42:24;;;;;;;10.07;4.93;;;13.20;99.90;;;;;;5066362;28;20025;-61
2022/07/02 03:44:50;;;;;;;6.78;4.00;;;13.20;99.90;;;;;;5065510;28;20515;-60
2022/07/02 03:47:16;;;;;;;7.68;4.65;;;13.10;99.90;;;;;;5066355;28;20051;-61
2022/07/02 03:49:41;;;;;;;6.38;3.85;;;13.10;99.90;;;;;;5071769;28;20028;-61
2022/07/02 03:52:07;;;;;;;7.65;4.60;;;13.10;99.90;;;;;;5071206;28;20082;-61
2022/07/02 03:54:32;;;;;;;6.65;4.13;;;13.10;99.90;;;;;;5071020;28;20033;-61
2022/07/02 03:56:58;;;;;;;7.53;4.32;;;13.10;99.90;;;;;;5069532;28;20099;-61
2022/07/02 03:59:24;;;;;;;5.25;4.18;;;13.10;99.90;;;;;;5069359;28;20051;-61
2022/07/02 04:01:50;;;;;;;8.20;4.18;;;13.10;99.90;;;;;;5070812;28;20056;-60
2022/07/02 04:04:16;;;;;;;8.02;4.50;;;13.10;99.90;;;;;;5071417;28;20024;-61
2022/07/02 04:06:41;;;;;;;9.45;4.70;;;13.10;99.90;;;;;;5069075;28;20042;-63
2022/07/02 04:09:07;;;;;;;7.85;4.60;;;13.10;99.90;;;;;;5070198;28;20476;-61
2022/07/02 04:11:32;;;;;;;6.25;4.70;;;13.10;99.90;;;;;;5070200;28;20063;-61
2022/07/02 04:13:58;;;;;;;7.57;4.57;;;13.10;99.90;;;;;;5084736;28;20021;-61
2022/07/02 04:16:23;;;;;;;11.60;4.55;;;13.00;99.90;;;;;;5068923;28;20023;-61
2022/07/02 04:18:49;;;;;;;4.68;4.05;;;13.10;99.90;;;;;;5070703;28;20024;-61
2022/07/02 04:21:14;;;;;;;5.85;4.25;;;13.10;99.90;;;;;;5069360;28;20048;-61
2022/07/02 04:23:40;;;;;;;5.22;3.72;;;13.20;99.90;;;;;;5069735;28;20030;-61
2022/07/02 04:26:05;;;;;;;7.68;4.10;;;13.30;99.90;;;;;;5069820;28;20016;-61
2022/07/02 04:28:31;;;;;;;7.93;4.32;;;13.30;99.90;;;;;;5067389;28;20480;-61
2022/07/02 04:30:57;;;;;;;6.50;4.35;;;13.40;99.90;;;;;;5070325;28;20607;-61
2022/07/02 04:33:22;;;;;;;7.40;3.92;;;13.40;99.90;;;;;;5067487;28;20029;-61
2022/07/02 04:35:48;;;;;;;6.97;3.90;;;13.50;99.90;;;;;;5068836;28;20397;-61
2022/07/02 04:38:13;;;;;;;6.93;3.58;;;13.50;99.90;;;;;;5083336;28;20025;-61
2022/07/02 04:40:39;;;;;;;8.27;5.43;;;13.60;99.90;;;;;;5070612;28;20020;-61
2022/07/02 04:43:04;;;;;;;6.68;4.65;;;13.60;99.90;;;;;;5069843;28;20040;-61
2022/07/02 04:45:30;;;;;;;8.52;4.90;;;13.60;99.90;;;;;;5070236;28;20095;-61
2022/07/02 04:47:55;;;;;;;6.97;3.90;;;13.70;99.90;;;;;;5067572;28;20064;-60
2022/07/02 04:50:21;;;;;;;6.20;3.67;;;13.70;99.90;;;;;;5069038;28;20047;-61
2022/07/02 04:52:49;;;;;;;4.50;3.30;;;13.80;99.90;;;;;;5067996;28;20107;-60
2022/07/02 04:55:15;;;;;;;7.45;3.10;;;13.80;99.90;;;;;;5069702;28;20434;-61
2022/07/02 04:57:41;;;;;;;6.18;3.25;;;13.90;99.90;;;;;;5069131;28;20506;-61
2022/07/02 05:00:08;;;;;;;4.65;3.55;;;14.00;99.90;;;;;;5068027;28;20570;-61
2022/07/02 05:02:34;;;;;;;6.85;3.70;;;14.00;99.90;;;;;;5074422;28;20032;-60
2022/07/02 05:05:00;;;;;;;6.15;4.30;;;14.10;99.90;;;;;;5070890;28;20106;-61
2022/07/02 05:07:26;;;;;;;8.48;4.20;;;14.10;99.90;;;;;;5074126;28;20071;-61
2022/07/02 05:09:51;;;;;;;7.00;4.22;;;14.20;99.90;;;;;;5065541;28;20052;-61
2022/07/02 05:12:17;;;;;;;6.97;4.13;;;14.20;99.90;;;;;;5061148;28;20388;-61
2022/07/02 05:14:43;;;;;;;7.03;3.95;;;14.20;99.90;;;;;;5065469;28;20074;-61
2022/07/02 05:17:08;;;;;;;5.47;4.07;;;14.30;99.90;;;;;;5062829;28;20024;-60
2022/07/02 05:19:34;;;;;;;10.20;4.53;;;14.40;99.90;;;;;;5072611;28;20012;-60
2022/07/02 05:21:59;;;;;;;8.13;4.25;;;14.50;99.90;;;;;;5069735;28;20150;-61
2022/07/02 05:24:25;;;;;;;5.35;3.58;;;14.50;99.90;;;;;;5065846;28;20028;-60
2022/07/02 05:26:50;;;;;;;13.27;4.97;;;14.60;99.90;;;;;;5069826;28;20025;-61
2022/07/02 05:29:16;;;;;;;6.15;3.45;;;14.70;99.90;;;;;;5056661;28;20047;-61
2022/07/02 05:31:42;;;;;;;6.80;4.10;;;14.80;99.90;;;;;;5061416;28;20071;-61
2022/07/02 05:34:07;;;;;;;4.90;3.53;;;14.90;99.90;;;;;;5069612;28;20028;-60
2022/07/02 05:36:33;;;;;;;6.05;3.47;;;15.00;99.90;;;;;;5054607;28;20147;-60
2022/07/02 05:38:58;;;;;;;8.52;3.70;;;15.10;99.90;;;;;;5067574;28;20025;-61
2022/07/02 05:41:24;;;;;;;5.53;3.25;;;15.10;99.90;;;;;;5058918;28;20020;-61
2022/07/02 05:43:49;;;;;;;5.70;3.60;;;15.20;99.90;;;;;;5072666;28;20033;-61
2022/07/02 05:46:15;;;;;;;5.10;3.47;;;15.30;99.90;;;;;;5071482;28;20063;-61
2022/07/02 05:48:41;;;;;;;6.15;2.95;;;15.30;99.90;;;;;;5072535;28;20082;-61
2022/07/02 05:51:07;;;;;;;7.78;3.42;;;15.40;99.90;;;;;;5067843;28;20121;-61
2022/07/02 05:53:32;;;;;;;4.63;2.80;;;15.50;99.90;;;;;;5069327;28;20482;-61
2022/07/02 05:55:58;;;;;;;5.13;3.15;;;15.60;99.60;;;;;;5072686;28;20021;-61
2022/07/02 05:58:23;;;;;;;5.28;2.42;;;15.70;99.30;;;;;;5065644;28;20523;-61
2022/07/02 06:00:49;;;;;;;6.80;2.88;;;15.80;99.00;;;;;;5069841;28;20020;-60
2022/07/02 06:03:15;;;;;;;5.75;3.25;;;15.80;98.50;;;;;;5068487;28;20051;-62
2022/07/02 06:08:25;;;;;;;4.50;2.30;;;15.90;97.50;;;;;;5077447;28;20101;-61
2022/07/02 06:10:51;;;;;;;3.60;1.70;;;15.90;96.90;;;;;;5073579;28;20464;-61
2022/07/02 06:13:17;;;;;;;4.07;1.70;;;16.00;96.80;;;;;;5078341;28;20019;-61
2022/07/02 06:15:42;;;;;;;3.60;1.80;;;16.10;96.80;;;;;;5065784;28;20437;-61
2022/07/02 06:18:08;;;;;;;3.78;1.77;;;16.10;96.40;;;;;;5073299;28;20031;-61
2022/07/02 06:20:35;;;;;;;4.32;1.70;;;16.20;96.10;;;;;;5069253;28;20032;-61
2022/07/02 06:23:00;;;;;;;2.42;1.30;;;16.20;95.80;;;;;;5070356;28;20008;-61
2022/07/02 06:25:26;;;;;;;3.85;1.40;;;16.30;95.60;;;;;;5066443;28;20063;-61
2022/07/02 06:27:51;;;;;;;3.90;1.42;;;16.30;95.00;;;;;;5079951;28;20028;-61
2022/07/02 06:30:17;;;;;;;2.83;1.38;;;16.40;94.10;;;;;;5055947;28;20017;-61
2022/07/02 06:32:43;;;;;;;3.22;0.93;;;16.40;94.00;;;;;;5064873;28;20082;-62
2022/07/02 06:35:08;;;;;;;3.08;0.75;;;16.50;93.80;;;;;;5054823;28;20020;-61
2022/07/02 06:37:34;;;;;;;2.22;0.90;;;16.60;93.10;;;;;;5067688;28;20086;-62
2022/07/02 06:40:00;;;;;;;4.00;1.33;;;16.70;93.20;;;;;;5072673;28;20035;-62
2022/07/02 06:42:34;;;;;;;3.90;1.02;;;16.80;92.70;;;;;;5068188;28;20472;-62
2022/07/02 06:45:00;;;;;;;2.47;0.90;;;16.80;92.10;;;;;;5069100;28;20069;-62
2022/07/02 06:47:27;;;;;;;1.63;0.70;;;16.90;91.10;;;;;;5053718;28;20037;-62
2022/07/02 06:49:57;;;;;;;1.83;0.70;;;17.00;90.50;;;;;;5069014;28;20017;-62
2022/07/02 06:52:23;;;;;;;;;;;17.10;90.20;;;;;;5054483;28;20029;-61
2022/07/02 06:54:48;;;;;;;2.33;0.50;;;17.10;89.60;;;;;;5054485;28;19916;-62
2022/07/02 06:57:14;;;;;;;1.70;0.55;;;17.20;89.30;;;;;;5054041;28;20021;-62
2022/07/02 06:59:40;;;;;;;0.98;0.40;;;17.30;88.90;;;;;;5057531;28;20036;-61
2022/07/02 07:02:06;;;;;;;1.98;0.60;;;17.50;88.60;;;;;;5063070;28;20112;-62
2022/07/02 07:04:33;;;;;;;0.90;0.40;;;17.60;87.70;;;;;;5054147;28;20051;-62
2022/07/02 07:07:03;;;;;;;2.20;0.47;;;17.70;86.90;;;;;;5061204;28;20492;-62
2022/07/02 07:09:28;;;;;;;1.50;0.63;;;17.80;86.30;;;;;;5055430;28;20143;-62
2022/07/02 07:11:54;;;;;;;1.10;0.40;;;17.90;85.50;;;;;;5053790;28;20472;-62
2022/07/02 07:14:20;;;;;;;2.55;0.60;;;17.90;84.80;;;;;;5053255;28;20083;-62
2022/07/02 07:16:46;;;;;;;1.55;0.30;;;18.00;84.20;;;;;;5061014;28;20031;-62
2022/07/02 07:19:12;;;;;;;0.80;0.40;;;18.10;83.20;;;;;;5071184;28;20376;-62
2022/07/02 07:21:40;;;;;;;1.52;0.60;;;18.20;82.60;;;;;;5060918;28;20025;-62
2022/07/02 07:24:07;;;;;;;1.15;0.30;;;18.20;82.20;;;;;;5055705;28;20029;-62
2022/07/02 07:26:33;;;;;;;1.50;0.50;;;18.20;82.00;;;;;;5081626;28;20417;-62
2022/07/02 07:29:00;;;;;;;0.45;0.40;;;18.20;81.30;;;;;;5055277;28;20048;-62
2022/07/02 07:31:37;;;;;;;1.25;0.40;;;18.20;80.90;;;;;;5073183;28;20045;-62
2022/07/02 07:34:03;;;;;;;1.23;0.30;;;18.30;80.50;;;;;;5055109;28;20021;-62
2022/07/02 07:36:30;;;;;;;2.63;0.45;;;18.40;80.50;;;;;;5057502;28;20024;-62
2022/07/02 07:38:56;;;;;;;1.20;0.30;;;18.50;79.90;;;;;;5081092;28;20431;-62
2022/07/02 07:41:23;;;;;;;1.27;0.40;;;18.50;79.30;;;;;;5058021;28;20071;-63
2022/07/02 07:43:49;;;;;;;0.95;0.35;;;18.50;79.10;;;;;;5071928;28;20025;-62
2022/07/02 07:46:15;;;;;;;0.60;0.40;;;18.50;78.80;;;;;;5076849;28;20090;-62
2022/07/02 07:48:41;;;;;;;0.80;0.40;;;18.60;78.50;;;;;;5075018;28;20043;-62
2022/07/02 07:51:06;;;;;;;1.95;0.90;;;18.70;78.30;;;;;;5076120;28;20074;-62
2022/07/02 07:53:32;;;;;;;1.25;0.40;;;18.70;78.30;;;;;;5079534;28;20125;-62
2022/07/02 07:55:58;;;;;;;1.67;0.45;;;18.70;78.20;;;;;;5079194;28;20017;-62
2022/07/02 07:58:24;;;;;;;1.15;0.40;;;18.80;78.10;;;;;;5081044;28;20036;-62
2022/07/02 08:00:56;;;;;;;1.25;0.30;;;18.90;78.40;;;;;;5075338;28;20345;-62
2022/07/02 08:03:36;;;;;;;0.63;0.25;;;18.90;78.40;;;;;;5080779;28;20016;-62
2022/07/02 08:06:01;;;;;;;1.05;0.30;;;19.00;78.40;;;;;;5074426;28;20025;-62
2022/07/02 08:08:27;;;;;;;3.10;0.80;;;19.00;78.30;;;;;;5076076;28;20407;-62
2022/07/02 08:10:52;;;;;;;0.90;0.30;;;19.10;78.00;;;;;;5074874;28;20017;-62
2022/07/02 08:13:18;;;;;;;1.33;0.32;;;19.10;78.00;;;;;;5070192;28;20031;-62
2022/07/02 08:15:44;;;;;;;1.27;0.38;;;19.20;77.60;;;;;;5055334;28;20087;-62
2022/07/02 08:18:10;;;;;;;0.70;0.30;;;19.20;77.70;;;;;;5068657;28;20091;-62
2022/07/02 08:20:36;;;;;;;5.30;0.40;;;19.30;77.70;;;;;;5055823;28;20100;-61
2022/07/02 08:23:02;;;;;;;2.83;0.50;;;19.40;77.60;;;;;;5082914;28;20469;-62
2022/07/02 08:25:30;;;;;;;2.05;0.38;;;19.40;77.50;;;;;;5063874;28;20028;-62
2022/07/02 08:27:55;;;;;;;2.08;0.32;;;19.50;77.30;;;;;;5077386;28;20028;-62
2022/07/02 08:30:21;;;;;;;2.10;0.38;;;19.50;77.30;;;;;;5074933;28;20044;-62
2022/07/02 08:32:46;;;;;;;1.35;0.40;;;19.60;77.40;;;;;;5070024;28;20031;-62
2022/07/02 08:35:12;;;;;;;1.35;0.38;;;19.60;77.30;;;;;;5085790;28;20090;-62
2022/07/02 08:37:38;;;;;;;3.00;0.70;;;19.70;77.40;;;;;;5078323;28;20042;-62
2022/07/02 08:40:04;;;;;;;1.67;0.60;;;19.80;77.00;;;;;;5083097;28;20051;-62
2022/07/02 08:42:31;;;;;;;2.63;0.60;;;19.80;76.70;;;;;;5080436;28;20095;-62
2022/07/02 08:44:58;;;;;;;2.20;0.70;;;19.80;75.90;;;;;;5073115;28;20028;-62
2022/07/02 08:47:25;;;;;;;2.30;0.70;;;19.90;74.60;;;;;;5068337;28;20032;-62
2022/07/02 08:49:52;;;;;;;3.05;0.88;;;19.90;74.60;;;;;;5073223;28;20157;-62
2022/07/02 08:52:19;;;;;;;4.57;0.80;;;19.90;74.50;;;;;;5058270;28;20100;-61
2022/07/02 08:54:46;;;;;;;2.15;0.57;;;20.00;74.60;;;;;;5064256;28;20021;-62
2022/07/02 08:57:13;;;;;;;2.30;0.70;;;20.00;75.00;;;;;;5058510;28;20025;-62
2022/07/02 08:59:39;;;;;;;4.05;0.60;;;20.00;72.90;;;;;;5058305;28;20040;-62
2022/07/02 09:02:06;;;;;;;1.27;0.40;;;20.10;73.20;;;;;;5058768;28;20108;-62
2022/07/02 09:04:34;;;;;;;1.00;0.45;;;20.10;73.30;;;;;;5061070;28;20024;-62
2022/07/02 09:07:02;;;;;;;1.85;0.30;;;20.20;73.10;;;;;;5066354;28;20154;-62
2022/07/02 09:09:29;;;;;;;1.98;0.40;;;20.20;72.60;;;;;;5060714;28;20032;-62
2022/07/02 09:11:56;;;;;;;1.40;0.50;;;20.30;72.60;;;;;;5062825;28;20115;-62
2022/07/02 09:14:21;;;;;;;2.00;0.50;;;20.40;73.20;;;;;;5071633;28;20384;-62
2022/07/02 09:16:48;;;;;;;2.72;0.70;;;20.40;72.00;;;;;;5061064;28;20096;-62
2022/07/02 09:19:15;;;;;;;3.03;0.75;;;20.50;72.40;;;;;;5060026;28;20021;-62
2022/07/02 09:21:48;;;;;;;1.90;0.82;;;20.50;72.00;;;;;;5061629;28;20496;-62
2022/07/02 09:24:13;;;;;;;3.75;0.50;;;20.60;72.90;;;;;;5062018;28;20025;-62
2022/07/02 09:26:39;;;;;;;1.90;0.50;;;20.60;73.90;;;;;;5084332;28;20066;-62
2022/07/02 09:29:05;;;;;;;2.08;0.50;;;20.70;72.90;;;;;;5077300;28;20013;-62
2022/07/02 09:31:32;;;;;;;1.70;0.68;;;20.80;72.90;;;;;;5064984;28;20020;-62
2022/07/02 09:33:58;;;;;;;1.88;0.50;;;20.80;71.60;;;;;;5069385;28;20021;-62
2022/07/02 09:36:24;;;;;;;2.85;0.60;;;20.80;70.70;;;;;;5066421;28;20492;-62
2022/07/02 09:38:53;;;;;;;2.10;0.55;;;20.90;71.50;;;;;;5072213;28;20055;-62
2022/07/02 09:41:26;;;;;;;1.63;0.43;;;21.00;71.90;;;;;;5076217;28;20024;-62
2022/07/02 09:43:56;;;;;;;2.95;0.50;;;21.00;70.30;;;;;;5060331;28;20139;-62
2022/07/02 09:46:26;;;;;;;2.65;0.60;;;21.10;71.20;;;;;;5051630;28;20074;-62
2022/07/02 09:48:52;;;;;;;1.90;0.50;;;21.10;68.40;;;;;;5072992;28;20030;-62
2022/07/02 09:51:18;;;;;;;1.98;0.60;;;21.10;68.70;;;;;;5063417;28;20028;-62
2022/07/02 09:53:55;;;;;;;1.52;0.63;;;21.20;69.60;;;;;;5065832;28;20024;-62
2022/07/02 09:56:26;;;;;;;3.60;0.70;;;21.30;71.10;;;;;;5056010;28;20025;-62
2022/07/02 09:58:52;;;;;;;2.08;0.60;;;21.40;70.50;;;;;;5065333;28;20058;-62
2022/07/02 10:01:19;;;;;;;3.13;0.95;;;21.40;70.40;;;;;;5052456;28;20108;-62
2022/07/02 10:03:50;;;;;;;3.80;0.93;;;21.50;69.80;;;;;;5053422;28;20029;-62
2022/07/02 10:06:17;;;;;;;4.00;1.00;;;21.60;71.40;;;;;;5057946;28;20060;-62
2022/07/02 10:08:43;;;;;;;2.70;0.73;;;21.70;70.40;;;;;;5068087;28;20033;-62
2022/07/02 10:11:11;;;;;;;2.78;0.77;;;21.60;68.20;;;;;;5084808;28;20397;-62
2022/07/02 10:13:37;;;;;;;1.50;0.47;;;21.60;67.60;;;;;;5067590;28;20476;-62
2022/07/02 10:16:04;;;;;;;6.40;1.08;;;21.70;68.90;;;;;;5061803;28;20041;-62
2022/07/02 10:18:30;;;;;;;1.45;0.50;;;21.80;68.60;;;;;;5056605;28;20014;-62
2022/07/02 10:20:57;;;;;;;2.80;0.82;;;22.00;69.20;;;;;;5056607;28;20029;-62
2022/07/02 10:23:23;;;;;;;4.88;0.70;;;22.10;66.00;;;;;;5057072;28;20045;-62
2022/07/02 10:25:50;;;;;;;2.90;0.90;;;22.20;64.60;;;;;;5072893;28;20071;-62
2022/07/02 10:28:16;;;;;;;2.53;0.70;;;22.20;64.20;;;;;;5078272;28;20052;-62
2022/07/02 10:30:42;;;;;;;1.60;0.40;;;22.20;65.30;;;;;;5076240;28;20527;-62
2022/07/02 10:33:08;;;;;;;2.85;0.40;;;22.30;65.10;;;;;;5076806;28;20116;-62
2022/07/02 10:35:36;;;;;;;2.33;0.47;;;22.40;64.70;;;;;;5072491;28;20096;-62
2022/07/02 10:38:02;;;;;;;1.58;0.43;;;22.40;64.90;;;;;;5067604;28;20025;-62
2022/07/02 10:40:27;;;;;;;2.45;0.40;;;22.50;64.30;;;;;;5071017;28;20074;-62
2022/07/02 10:42:57;;;;;;;0.90;0.32;;;22.70;64.20;;;;;;5071634;28;20032;-62
2022/07/02 10:45:24;;;;;;;5.45;0.90;;;22.90;63.50;;;;;;5062579;28;20118;-62
2022/07/02 10:48:00;;;;;;;3.13;0.50;;;22.80;61.20;;;;;;5066711;28;20121;-62
2022/07/02 10:50:46;;;;;;;2.47;0.57;;;22.80;61.50;;;;;;5053583;28;20032;-62
2022/07/02 10:53:20;;;;;;;2.88;0.60;;;22.80;61.70;;;;;;5061391;28;20033;-62
2022/07/02 10:55:55;;;;;;;3.97;0.68;;;22.70;61.40;;;;;;5055867;28;20086;-62
2022/07/02 10:58:23;;;;;;;2.13;0.60;;;22.60;62.30;;;;;;5069260;28;20105;-62
2022/07/02 11:00:49;;;;;;;1.60;0.70;;;22.50;63.90;;;;;;5075521;28;20494;-62
2022/07/02 11:03:20;;;;;;;1.83;0.60;;;22.60;63.40;;;;;;5064734;28;20021;-62
2022/07/02 11:05:59;;;;;;;4.13;0.75;;;22.60;62.30;;;;;;5070253;28;20077;-62
2022/07/02 11:08:41;;;;;;;;;;;22.60;62.90;;;;;;5064163;28;20029;-62
2022/07/02 11:11:08;;;;;;;2.25;1.10;;;22.40;61.80;;;;;;5069225;28;20417;-62
2022/07/02 11:13:39;;;;;;;2.40;0.52;;;22.50;62.90;;;;;;5080271;28;20020;-62
2022/07/02 11:16:18;;;;;;;1.33;0.40;;;22.60;63.70;;;;;;5082702;28;20016;-61
2022/07/02 11:18:46;;;;;;;1.63;0.50;;;22.70;63.90;;;;;;5068229;28;20027;-62
2022/07/02 11:21:15;;;;;;;1.65;0.57;;;22.70;62.60;;;;;;5062520;28;20037;-62
2022/07/02 11:23:42;;;;;;;2.30;0.50;;;22.80;63.30;;;;;;5062224;28;20024;-61
2022/07/02 11:26:07;;;;;;;1.83;0.80;;;23.00;61.90;;;;;;5081586;28;20036;-62
2022/07/02 11:28:36;;;;;;;1.63;0.50;;;23.00;61.90;;;;;;5058615;28;20082;-62
2022/07/02 11:31:04;;;;;;;2.10;0.40;;;23.00;62.50;;;;;;5076972;28;20033;-62
2022/07/02 11:33:33;;;;;;;2.13;0.63;;;23.10;62.00;;;;;;5073649;28;20028;-62
2022/07/02 11:35:59;;;;;;;1.70;0.50;;;23.10;62.30;;;;;;5077854;28;20483;-62
2022/07/02 11:38:25;;;;;;;2.25;0.50;;;23.20;60.30;;;;;;5075169;28;20831;-62
2022/07/02 11:40:51;;;;;;;1.98;0.40;;;23.40;61.60;;;;;;5057018;28;20017;-62
2022/07/02 11:43:18;;;;;;;1.75;0.30;;;23.80;60.80;;;;;;5080799;28;20086;-62
2022/07/02 11:45:45;;;;;;;2.75;0.50;;;23.90;58.20;;;;;;5077392;28;20427;-62
2022/07/02 11:48:20;;;;;;;1.67;0.50;;;24.10;58.30;;;;;;5065143;28;20024;-62
2022/07/02 11:50:55;;;;;;;2.45;0.60;;;24.10;57.40;;;;;;5063682;28;20042;-62
2022/07/02 11:53:20;;;;;;;1.60;0.40;;;24.10;55.80;;;;;;5073962;28;20025;-62
2022/07/02 11:55:46;;;;;;;1.05;0.30;;;24.00;56.70;;;;;;5064192;28;20044;-62
2022/07/02 11:58:11;;;;;;;3.38;0.40;;;24.10;56.50;;;;;;5068326;28;20044;-62
2022/07/02 12:00:37;;;;;;;1.50;0.40;;;24.10;56.50;;;;;;5067204;28;20029;-62
2022/07/02 12:03:13;;;;;;;1.17;0.50;;;24.10;56.30;;;;;;5069008;28;20040;-62
2022/07/02 12:05:52;;;;;;;0.75;0.22;;;24.20;55.80;;;;;;5068987;28;20124;-62
2022/07/02 12:08:41;;;;;;;;;;;24.30;55.60;;;;;;5071078;28;20035;-62
2022/07/02 12:11:12;;;;;;;2.08;0.40;;;24.10;55.20;;;;;;5068012;28;19999;-62
2022/07/02 12:13:37;;;;;;;4.00;0.35;;;24.10;54.80;;;;;;5069722;28;20030;-62
2022/07/02 12:16:03;;;;;;;1.77;0.63;;;24.20;55.10;;;;;;5070083;28;20033;-62
2022/07/02 12:18:29;;;;;;;2.47;0.40;;;24.50;55.40;;;;;;5071580;28;20016;-62
2022/07/02 12:20:54;;;;;;;1.08;0.40;;;24.70;54.30;;;;;;5071507;28;20029;-62
2022/07/02 12:23:20;;;;;;;2.13;0.40;;;24.80;54.40;;;;;;5071717;28;20032;-62
2022/07/02 12:25:48;;;;;;;0.93;0.30;;;24.70;53.60;;;;;;5068753;28;20035;-62
2022/07/02 12:31:03;;;;;;;1.87;0.40;;;24.60;53.50;;;;;;5069812;28;20534;-62
2022/07/02 12:33:41;;;;;;;1.40;0.30;;;24.50;53.40;;;;;;5074232;28;20622;-62
2022/07/02 12:36:07;;;;;;;3.13;0.40;;;24.50;53.70;;;;;;5072842;28;20025;-62
2022/07/02 12:38:43;;;;;;;2.00;0.40;;;24.50;53.40;;;;;;5069832;28;20028;-62
2022/07/02 12:41:08;;;;;;;2.13;0.30;;;24.40;54.90;;;;;;5072348;28;20047;-62
2022/07/02 12:43:34;;;;;;;1.52;0.40;;;24.40;55.20;;;;;;5073598;28;20024;-62
2022/07/02 12:46:05;;;;;;;1.25;0.38;;;24.50;56.70;;;;;;5076122;28;20446;-62
2022/07/02 12:48:44;;;;;;;1.38;0.30;;;24.70;54.40;;;;;;5062746;28;20021;-62
2022/07/02 12:51:11;;;;;;;0.85;0.30;;;25.10;53.00;;;;;;5072457;28;20082;-62
2022/07/02 12:53:37;;;;;;;1.35;0.45;;;25.40;52.90;;;;;;5080668;28;20070;-62